createdAt,value
2022-11-24T00:01:17.921Z,41.90
2022-11-24T00:03:46.140Z,45.45
2022-11-24T00:06:16.099Z,44.25
2022-11-24T00:08:45.856Z,40.13
2022-11-24T00:11:15.309Z,44.33
2022-11-24T00:13:42.876Z,44.22
2022-11-24T00:16:18.285Z,41.55
2022-11-24T00:18:48.125Z,46.65
2022-11-24T00:21:16.346Z,43.58
2022-11-24T00:23:43.358Z,49.08
2022-11-24T00:26:16.070Z,56.55
2022-11-24T00:28:44.209Z,54.28
2022-11-24T00:31:34.442Z,52.65
2022-11-24T00:34:04.060Z,51.70
2022-11-24T00:36:32.975Z,51.85
2022-11-24T00:39:02.448Z,53.80
2022-11-24T00:41:29.921Z,47.47
2022-11-24T00:43:57.421Z,63.45
2022-11-24T00:46:25.016Z,51.85
2022-11-24T00:48:54.179Z,49.05
2022-11-24T00:51:23.845Z,53.90
2022-11-24T00:53:50.770Z,57.67
2022-11-24T00:56:17.321Z,52.35
2022-11-24T00:58:43.916Z,67.72
2022-11-24T01:01:16.835Z,51.80
2022-11-24T01:03:44.015Z,66.90
2022-11-24T01:06:14.412Z,51.30
2022-11-24T01:08:41.615Z,50.25
2022-11-24T01:11:12.769Z,53.28
2022-11-24T01:13:40.156Z,52.33
2022-11-24T01:16:07.522Z,49.22
2022-11-24T01:18:34.190Z,55.88
2022-11-24T01:21:09.622Z,51.45
2022-11-24T01:23:36.568Z,49.92
2022-11-24T01:26:12.596Z,57.85
2022-11-24T01:28:44.886Z,53.42
2022-11-24T01:31:13.758Z,49.42
2022-11-24T01:33:40.478Z,51.58
2022-11-24T01:36:07.176Z,51.55
2022-11-24T01:38:33.800Z,48.75
2022-11-24T01:41:06.255Z,56.28
2022-11-24T01:43:33.145Z,51.38
2022-11-24T01:46:15.212Z,50.00
2022-11-24T01:48:45.240Z,47.97
2022-11-24T01:51:16.214Z,55.17
2022-11-24T01:53:47.266Z,47.40
2022-11-24T01:56:14.202Z,48.42
2022-11-24T01:58:44.480Z,47.78
2022-11-24T02:01:11.659Z,48.15
2022-11-24T02:03:42.063Z,45.42
2022-11-24T02:06:14.018Z,49.50
2022-11-24T02:08:49.371Z,47.88
2022-11-24T02:11:16.068Z,48.55
2022-11-24T02:13:44.204Z,45.80
2022-11-24T02:16:12.505Z,41.28
2022-11-24T02:18:42.071Z,52.20
2022-11-24T02:21:11.498Z,45.75
2022-11-24T02:23:55.558Z,50.95
2022-11-24T02:26:35.006Z,48.90
2022-11-24T02:29:02.344Z,49.03
2022-11-24T02:31:29.088Z,51.15
2022-11-24T02:33:56.128Z,47.40
2022-11-24T02:36:22.717Z,42.45
2022-11-24T02:38:49.353Z,43.00
2022-11-24T02:41:22.599Z,50.05
2022-11-24T02:43:59.303Z,38.25
2022-11-24T02:46:26.054Z,42.20
2022-11-24T02:48:52.807Z,39.45
2022-11-24T02:51:19.778Z,40.67
2022-11-24T02:53:46.338Z,40.15
2022-11-24T02:56:12.910Z,37.47
2022-11-24T02:58:39.657Z,39.72
2022-11-24T03:01:06.360Z,43.03
2022-11-24T03:03:33.388Z,37.03
2022-11-24T03:06:00.047Z,37.83
2022-11-24T03:08:26.599Z,43.97
2022-11-24T03:10:53.225Z,32.45
2022-11-24T03:13:19.832Z,38.63
2022-11-24T03:15:46.446Z,35.33
2022-11-24T03:18:13.124Z,36.55
2022-11-24T03:20:39.720Z,42.28
2022-11-24T03:23:06.317Z,37.83
2022-11-24T03:25:32.914Z,35.35
2022-11-24T03:27:59.601Z,34.83
2022-11-24T03:30:26.273Z,35.63
2022-11-24T03:32:56.147Z,35.40
2022-11-24T03:35:23.215Z,36.20
2022-11-24T03:37:49.898Z,35.42
2022-11-24T03:40:18.021Z,38.78
2022-11-24T03:42:44.633Z,38.67
2022-11-24T03:45:37.996Z,33.75
2022-11-24T03:47:57.995Z,37.47
2022-11-24T03:50:24.609Z,32.85
2022-11-24T03:52:51.223Z,35.58
2022-11-24T03:55:17.826Z,36.17
2022-11-24T03:57:44.443Z,36.22
2022-11-24T04:00:11.953Z,36.28
2022-11-24T04:02:38.838Z,41.25
2022-11-24T04:05:06.234Z,35.58
2022-11-24T04:07:32.888Z,35.08
2022-11-24T04:09:59.557Z,37.65
2022-11-24T04:12:44.723Z,48.45
2022-11-24T04:15:14.078Z,38.22
2022-11-24T04:17:41.077Z,36.45
2022-11-24T04:20:08.569Z,37.83
2022-11-24T04:22:35.906Z,39.63
2022-11-24T04:25:03.689Z,43.83
2022-11-24T04:27:30.621Z,38.65
2022-11-24T04:29:57.246Z,41.80
2022-11-24T04:32:23.830Z,43.95
2022-11-24T04:34:50.438Z,43.45
2022-11-24T04:37:17.055Z,43.05
2022-11-24T04:39:44.000Z,36.80
2022-11-24T04:42:10.584Z,40.08
2022-11-24T04:44:37.378Z,39.90
2022-11-24T04:47:04.234Z,35.25
2022-11-24T04:49:30.871Z,44.05
2022-11-24T04:51:57.505Z,45.67
2022-11-24T04:54:24.149Z,47.67
2022-11-24T04:56:52.129Z,43.40
2022-11-24T04:59:19.918Z,45.90
2022-11-24T05:01:47.401Z,44.70
2022-11-24T05:04:15.976Z,44.15
2022-11-24T05:06:42.663Z,46.22
2022-11-24T05:09:13.591Z,42.10
2022-11-24T05:11:40.138Z,41.22
2022-11-24T05:14:06.778Z,44.33
2022-11-24T05:16:33.454Z,40.78
2022-11-24T05:19:00.127Z,42.67
2022-11-24T05:21:28.076Z,44.65
2022-11-24T05:23:54.642Z,46.03
2022-11-24T05:26:21.563Z,45.97
2022-11-24T05:28:48.162Z,52.85
2022-11-24T05:31:14.737Z,45.33
2022-11-24T05:33:43.372Z,46.13
2022-11-24T05:36:30.356Z,48.60
2022-11-24T05:38:57.226Z,42.92
2022-11-24T05:41:23.867Z,47.58
2022-11-24T05:43:50.489Z,44.15
2022-11-24T05:46:17.301Z,45.00
2022-11-24T05:48:44.035Z,49.22
2022-11-24T05:51:10.659Z,43.55
2022-11-24T05:53:37.227Z,44.30
2022-11-24T05:56:04.411Z,44.38
2022-11-24T05:58:31.043Z,40.13
2022-11-24T06:00:57.583Z,41.50
2022-11-24T06:03:24.175Z,37.55
2022-11-24T06:05:50.802Z,43.65
2022-11-24T06:08:17.399Z,38.15
2022-11-24T06:10:43.974Z,43.40
2022-11-24T06:13:10.632Z,41.38
2022-11-24T06:15:37.848Z,43.03
2022-11-24T06:18:04.662Z,42.95
2022-11-24T06:20:32.910Z,43.88
2022-11-24T06:23:00.231Z,43.95
2022-11-24T06:25:27.162Z,47.40
2022-11-24T06:27:53.718Z,38.05
2022-11-24T06:30:20.308Z,45.90
2022-11-24T06:32:49.647Z,49.85
2022-11-24T06:35:16.989Z,45.88
2022-11-24T06:37:43.655Z,42.13
2022-11-24T06:40:10.513Z,45.63
2022-11-24T06:42:37.721Z,51.00
2022-11-24T06:45:09.035Z,42.20
2022-11-24T06:47:36.723Z,48.08
2022-11-24T06:50:03.664Z,47.72
2022-11-24T06:52:30.217Z,48.25
2022-11-24T06:54:57.349Z,46.35
2022-11-24T06:57:24.050Z,53.72
2022-11-24T06:59:50.786Z,53.75
2022-11-24T07:02:17.319Z,50.20
2022-11-24T07:04:43.913Z,50.47
2022-11-24T07:07:10.603Z,45.95
2022-11-24T07:09:37.212Z,44.05
2022-11-24T07:12:04.947Z,44.15
2022-11-24T07:14:32.302Z,49.03
2022-11-24T07:16:59.086Z,57.28
2022-11-24T07:19:25.731Z,49.88
2022-11-24T07:21:52.327Z,48.38
2022-11-24T07:24:19.001Z,57.75
2022-11-24T07:26:45.781Z,56.83
2022-11-24T07:29:12.346Z,55.95
2022-11-24T07:31:39.217Z,46.85
2022-11-24T07:34:06.363Z,56.58
2022-11-24T07:36:32.895Z,55.83
2022-11-24T07:38:59.759Z,53.70
2022-11-24T07:41:26.448Z,57.70
2022-11-24T07:43:53.172Z,49.45
2022-11-24T07:46:20.725Z,55.35
2022-11-24T07:48:47.451Z,55.58
2022-11-24T07:51:14.372Z,59.13
2022-11-24T07:53:40.918Z,55.53
2022-11-24T07:56:09.099Z,58.30
2022-11-24T07:58:37.129Z,51.67
2022-11-24T08:01:15.152Z,55.33
2022-11-24T08:03:43.050Z,56.78
2022-11-24T08:06:30.118Z,53.45
2022-11-24T08:08:57.931Z,52.92
2022-11-24T08:11:25.268Z,58.45
2022-11-24T08:13:52.129Z,50.10
2022-11-24T08:16:20.126Z,56.38
2022-11-24T08:18:55.199Z,55.17
2022-11-24T08:23:50.199Z,41.40
2022-11-24T08:26:19.325Z,57.08
2022-11-24T08:28:47.186Z,47.60
2022-11-24T08:31:16.486Z,54.30
2022-11-24T08:33:43.473Z,49.17
2022-11-24T08:36:13.045Z,54.15
2022-11-24T08:38:39.638Z,46.70
2022-11-24T08:41:09.103Z,49.17
2022-11-24T08:43:35.830Z,57.08
2022-11-24T08:46:05.415Z,47.40
2022-11-24T08:48:32.915Z,55.63
2022-11-24T08:51:06.123Z,47.10
2022-11-24T08:53:32.717Z,52.22
2022-11-24T08:56:00.587Z,54.42
2022-11-24T08:58:29.189Z,48.53
2022-11-24T09:00:56.050Z,50.90
2022-11-24T09:03:22.802Z,46.85
2022-11-24T09:05:52.111Z,42.30
2022-11-24T09:08:19.269Z,39.97
2022-11-24T09:10:45.830Z,48.47
2022-11-24T09:13:12.591Z,44.45
2022-11-24T09:15:39.166Z,51.47
2022-11-24T09:18:05.749Z,45.25
2022-11-24T09:20:32.342Z,45.38
2022-11-24T09:22:58.951Z,43.72
2022-11-24T09:25:25.618Z,42.53
2022-11-24T09:27:52.481Z,45.40
2022-11-24T09:30:19.190Z,42.35
2022-11-24T09:32:45.809Z,45.70
2022-11-24T09:35:12.393Z,43.20
2022-11-24T09:37:39.063Z,43.92
2022-11-24T09:40:06.271Z,46.58
2022-11-24T09:42:38.703Z,42.72
2022-11-24T09:45:05.606Z,39.92
2022-11-24T09:47:47.532Z,42.78
2022-11-24T09:50:19.355Z,48.88
2022-11-24T09:53:01.104Z,48.28
2022-11-24T09:55:50.061Z,46.28
2022-11-24T09:58:50.901Z,38.55
2022-11-24T10:01:21.384Z,46.35
2022-11-24T10:03:51.075Z,47.40
2022-11-24T10:06:31.594Z,49.42
2022-11-24T10:09:13.265Z,36.03
2022-11-24T10:11:50.702Z,40.72
2022-11-24T10:14:26.995Z,38.33
2022-11-24T10:17:19.307Z,41.28
2022-11-24T10:20:20.376Z,38.03
2022-11-24T10:23:11.388Z,35.33
2022-11-24T10:25:58.224Z,42.33
2022-11-24T10:28:49.110Z,41.72
2022-11-24T10:31:31.395Z,41.05
2022-11-24T10:34:05.888Z,38.13
2022-11-24T10:36:47.357Z,40.08
2022-11-24T10:39:23.839Z,41.70
2022-11-24T10:41:56.633Z,41.28
2022-11-24T10:44:23.448Z,40.50
2022-11-24T10:46:50.736Z,36.20
2022-11-24T10:49:36.075Z,35.25
2022-11-24T10:52:11.838Z,35.50
2022-11-24T10:54:58.094Z,42.05
2022-11-24T10:57:30.594Z,41.78
2022-11-24T10:59:57.423Z,35.15
2022-11-24T11:02:39.420Z,38.35
2022-11-24T11:05:24.118Z,38.92
2022-11-24T11:07:51.007Z,38.28
2022-11-24T11:10:22.087Z,40.05
2022-11-24T11:12:49.085Z,38.30
2022-11-24T11:15:29.955Z,43.08
2022-11-24T11:18:01.201Z,36.30
2022-11-24T11:20:32.555Z,39.72
2022-11-24T11:23:03.344Z,36.70
2022-11-24T11:25:34.200Z,36.65
2022-11-24T11:28:19.693Z,31.95
2022-11-24T11:31:17.393Z,30.55
2022-11-24T11:34:05.518Z,36.80
2022-11-24T11:36:39.375Z,35.50
2022-11-24T11:39:06.564Z,31.83
2022-11-24T11:41:37.012Z,36.50
2022-11-24T11:44:38.779Z,34.60
2022-11-24T11:47:36.181Z,32.10
2022-11-24T11:50:05.658Z,36.22
2022-11-24T11:53:03.247Z,39.72
2022-11-24T11:55:32.806Z,41.90
2022-11-24T11:58:12.557Z,35.47
2022-11-24T12:00:46.933Z,37.40
2022-11-24T12:03:33.552Z,40.90
2022-11-24T12:06:24.961Z,37.03
2022-11-24T12:09:23.714Z,43.00
2022-11-24T12:12:23.445Z,36.38
2022-11-24T12:14:59.507Z,39.75
2022-11-24T12:17:40.211Z,38.85
2022-11-24T12:20:41.462Z,41.85
2022-11-24T12:23:32.316Z,43.55
2022-11-24T12:26:28.529Z,40.38
2022-11-24T12:29:20.314Z,38.83
2022-11-24T12:32:05.996Z,38.30
2022-11-24T12:35:09.444Z,38.15
2022-11-24T12:37:56.248Z,38.92
2022-11-24T12:41:06.411Z,45.60
2022-11-24T12:43:50.293Z,40.40
2022-11-24T12:46:26.753Z,40.22
2022-11-24T12:49:24.112Z,43.03
2022-11-24T12:52:01.506Z,39.55
2022-11-24T12:54:38.244Z,42.67
2022-11-24T12:57:34.361Z,40.85
2022-11-24T13:00:08.786Z,43.83
2022-11-24T13:02:52.295Z,39.83
2022-11-24T13:05:33.280Z,39.15
2022-11-24T13:08:05.498Z,38.88
2022-11-24T13:10:59.101Z,38.83
2022-11-24T13:14:00.690Z,34.95
2022-11-24T13:16:40.818Z,41.35
2022-11-24T13:19:22.584Z,48.17
2022-11-24T13:22:12.079Z,44.13
2022-11-24T13:24:41.296Z,45.22
2022-11-24T13:27:13.865Z,47.55
2022-11-24T13:29:43.274Z,37.13
2022-11-24T13:32:11.733Z,43.13
2022-11-24T13:34:43.047Z,38.50
2022-11-24T13:37:35.802Z,43.78
2022-11-24T13:40:22.911Z,50.13
2022-11-24T13:43:01.615Z,43.72
2022-11-24T13:45:40.951Z,41.80
2022-11-24T13:48:20.817Z,45.15
2022-11-24T13:50:51.766Z,44.47
2022-11-24T13:53:30.172Z,40.17
2022-11-24T13:56:21.775Z,39.92
2022-11-24T13:58:51.814Z,41.30
2022-11-24T14:01:23.748Z,50.63
2022-11-24T14:04:30.576Z,43.20
2022-11-24T14:07:08.701Z,42.78
2022-11-24T14:09:48.243Z,42.20
2022-11-24T14:12:20.667Z,37.83
2022-11-24T14:15:20.931Z,56.53
2022-11-24T14:17:47.716Z,41.75
2022-11-24T14:20:25.430Z,38.75
2022-11-24T14:22:52.483Z,41.53
2022-11-24T14:25:21.020Z,43.85
2022-11-24T14:27:50.374Z,41.70
2022-11-24T14:30:21.472Z,40.90
2022-11-24T14:33:03.074Z,44.85
2022-11-24T14:35:35.733Z,43.88
2022-11-24T14:38:04.847Z,41.95
2022-11-24T14:40:37.754Z,44.03
2022-11-24T14:43:08.524Z,44.60
2022-11-24T14:45:35.432Z,36.83
2022-11-24T14:48:02.103Z,45.75
2022-11-24T14:50:29.039Z,43.83
2022-11-24T14:52:59.832Z,44.88
2022-11-24T14:55:35.382Z,42.25
2022-11-24T14:58:02.203Z,46.25
2022-11-24T15:00:31.741Z,41.63
2022-11-24T15:03:01.304Z,51.97
2022-11-24T15:05:59.358Z,47.33
2022-11-24T15:08:36.433Z,46.95
2022-11-24T15:11:09.261Z,47.10
2022-11-24T15:13:40.785Z,43.67
2022-11-24T15:16:20.821Z,43.80
2022-11-24T15:18:56.955Z,43.05
2022-11-24T15:21:37.352Z,41.42
2022-11-24T15:24:18.594Z,46.03
2022-11-24T15:26:46.859Z,40.72
2022-11-24T15:29:14.048Z,46.25
2022-11-24T15:31:43.316Z,42.92
2022-11-24T15:34:15.782Z,44.42
2022-11-24T15:36:42.573Z,44.33
2022-11-24T15:39:09.686Z,43.60
2022-11-24T15:41:37.543Z,45.13
2022-11-24T15:44:04.844Z,42.25
2022-11-24T15:46:38.443Z,51.03
2022-11-24T15:49:06.193Z,45.75
2022-11-24T15:51:33.674Z,44.85
2022-11-24T15:54:01.552Z,42.17
2022-11-24T15:56:34.180Z,49.70
2022-11-24T15:59:02.337Z,42.22
2022-11-24T16:01:32.879Z,40.63
2022-11-24T16:04:01.063Z,43.10
2022-11-24T16:06:27.935Z,40.72
2022-11-24T16:08:54.900Z,40.63
2022-11-24T16:11:22.942Z,45.72
2022-11-24T16:13:53.041Z,44.22
2022-11-24T16:16:24.201Z,39.22
2022-11-24T16:18:50.985Z,42.53
2022-11-24T16:21:18.122Z,42.65
2022-11-24T16:23:46.176Z,39.03
2022-11-24T16:26:12.938Z,35.75
2022-11-24T16:28:39.679Z,38.33
2022-11-24T16:31:06.421Z,38.78
2022-11-24T16:33:33.107Z,42.17
2022-11-24T16:36:02.397Z,35.25
2022-11-24T16:38:29.910Z,39.83
2022-11-24T16:40:57.123Z,33.38
2022-11-24T16:43:27.008Z,38.20
2022-11-24T16:46:21.498Z,39.05
2022-11-24T16:48:50.532Z,38.28
2022-11-24T16:51:18.388Z,34.42
2022-11-24T16:53:45.785Z,39.88
2022-11-24T16:56:14.492Z,39.63
2022-11-24T16:58:41.232Z,37.15
2022-11-24T17:01:11.258Z,38.90
2022-11-24T17:03:38.794Z,43.83
2022-11-24T17:06:08.886Z,37.80
2022-11-24T17:08:37.941Z,40.25
2022-11-24T17:11:08.950Z,37.60
2022-11-24T17:13:35.786Z,37.63
2022-11-24T17:16:07.304Z,36.67
2022-11-24T17:18:37.389Z,35.45
2022-11-24T17:21:09.585Z,37.78
2022-11-24T17:23:38.219Z,40.10
2022-11-24T17:26:08.054Z,35.72
2022-11-24T17:28:37.909Z,36.08
2022-11-24T17:31:25.345Z,38.25
2022-11-24T17:33:54.841Z,40.90
2022-11-24T17:36:24.142Z,39.17
2022-11-24T17:38:51.276Z,39.65
2022-11-24T17:41:22.282Z,43.60
2022-11-24T17:43:51.269Z,39.47
2022-11-24T17:46:18.759Z,41.00
2022-11-24T17:48:48.328Z,39.85
2022-11-24T17:51:19.490Z,44.03
2022-11-24T17:53:49.560Z,44.05
2022-11-24T17:56:24.662Z,45.25
2022-11-24T17:58:56.744Z,40.72
2022-11-24T18:01:24.085Z,41.17
2022-11-24T18:03:53.610Z,39.83
2022-11-24T18:06:24.207Z,41.50
2022-11-24T18:08:51.773Z,41.30
2022-11-24T18:11:31.000Z,45.05
2022-11-24T18:14:03.674Z,40.33
2022-11-24T18:16:35.721Z,40.85
2022-11-24T18:19:09.955Z,40.90
2022-11-24T18:21:40.932Z,39.75
2022-11-24T18:24:12.077Z,42.65
2022-11-24T18:26:44.324Z,40.78
2022-11-24T18:29:12.323Z,41.28
2022-11-24T18:31:39.279Z,36.85
2022-11-24T18:34:07.312Z,44.15
2022-11-24T18:36:35.148Z,39.63
2022-11-24T18:39:06.420Z,34.15
2022-11-24T18:41:33.505Z,41.25
2022-11-24T18:44:03.481Z,40.90
2022-11-24T18:46:30.181Z,46.20
2022-11-24T18:48:57.595Z,41.25
2022-11-24T18:51:24.348Z,43.85
2022-11-24T18:53:58.186Z,34.45
2022-11-24T18:56:25.723Z,33.87
2022-11-24T18:58:56.053Z,47.42
2022-11-24T19:01:28.239Z,37.33
2022-11-24T19:03:58.706Z,40.30
2022-11-24T19:06:37.224Z,37.22
2022-11-24T19:09:11.390Z,34.97
2022-11-24T19:11:41.131Z,38.22
2022-11-24T19:14:11.313Z,35.78
2022-11-24T19:16:38.345Z,33.97
2022-11-24T19:19:05.777Z,38.60
2022-11-24T19:21:34.727Z,34.63
2022-11-24T19:24:05.268Z,39.55
2022-11-24T19:26:37.732Z,35.13
2022-11-24T19:29:05.775Z,38.85
2022-11-24T19:31:35.881Z,46.60
2022-11-24T19:34:03.718Z,36.22
2022-11-24T19:36:30.969Z,38.97
2022-11-24T19:38:58.983Z,32.00
2022-11-24T19:41:28.562Z,34.55
2022-11-24T19:43:55.824Z,35.97
2022-11-24T19:46:27.174Z,33.67
2022-11-24T19:48:57.349Z,36.40
2022-11-24T19:51:30.992Z,38.72
2022-11-24T19:53:58.215Z,34.22
2022-11-24T19:56:27.683Z,37.38
2022-11-24T19:58:55.556Z,36.40
2022-11-24T20:01:27.274Z,34.72
2022-11-24T20:03:58.838Z,37.10
2022-11-24T20:06:28.000Z,36.20
2022-11-24T20:08:55.064Z,36.05
2022-11-24T20:11:22.379Z,37.60
2022-11-24T20:13:49.979Z,36.65
2022-11-24T20:16:20.122Z,31.55
2022-11-24T20:18:47.829Z,34.17
2022-11-24T20:21:17.966Z,31.58
2022-11-24T20:23:46.822Z,31.77
2022-11-24T20:26:19.909Z,31.52
2022-11-24T20:28:47.465Z,35.55
2022-11-24T20:31:20.208Z,31.80
2022-11-24T20:33:47.605Z,33.03
2022-11-24T20:36:16.862Z,36.97
2022-11-24T20:38:44.747Z,36.40
2022-11-24T20:41:16.951Z,31.15
2022-11-24T20:43:44.478Z,35.30
2022-11-24T20:46:22.701Z,33.97
2022-11-24T20:48:49.729Z,32.63
2022-11-24T20:51:26.375Z,33.67
2022-11-24T20:53:56.820Z,36.25
2022-11-24T20:56:36.805Z,39.95
2022-11-24T20:59:04.774Z,37.53
2022-11-24T21:01:40.225Z,36.35
2022-11-24T21:04:09.939Z,38.58
2022-11-24T21:06:37.707Z,37.08
2022-11-24T21:09:05.974Z,33.47
2022-11-24T21:11:32.930Z,34.80
2022-11-24T21:14:00.373Z,36.88
2022-11-24T21:16:32.748Z,35.53
2022-11-24T21:19:03.912Z,32.90
2022-11-24T21:21:34.855Z,36.53
2022-11-24T21:24:07.509Z,44.00
2022-11-24T21:26:39.646Z,36.45
2022-11-24T21:29:08.322Z,39.28
2022-11-24T21:31:39.906Z,38.60
2022-11-24T21:34:07.665Z,38.95
2022-11-24T21:36:40.803Z,36.58
2022-11-24T21:39:07.677Z,36.38
2022-11-24T21:41:34.746Z,38.63
2022-11-24T21:44:03.046Z,33.42
2022-11-24T21:46:38.958Z,36.17
2022-11-24T21:49:09.337Z,37.65
2022-11-24T21:51:35.975Z,38.92
2022-11-24T21:54:05.279Z,33.10
2022-11-24T21:56:32.203Z,37.63
2022-11-24T21:58:58.911Z,41.65
2022-11-24T22:01:28.307Z,38.10
2022-11-24T22:03:57.645Z,35.45
2022-11-24T22:06:24.451Z,35.90
2022-11-24T22:08:51.533Z,34.65
2022-11-24T22:11:23.610Z,36.20
2022-11-24T22:13:51.460Z,37.08
2022-11-24T22:16:23.753Z,33.53
2022-11-24T22:18:51.092Z,30.58
2022-11-24T22:21:22.580Z,35.22
2022-11-24T22:23:54.836Z,37.92
2022-11-24T22:26:23.044Z,35.83
2022-11-24T22:28:52.422Z,36.20
2022-11-24T22:31:21.322Z,34.90
2022-11-24T22:33:48.854Z,35.65
2022-11-24T22:36:18.935Z,35.45
2022-11-24T22:38:47.145Z,37.38
2022-11-24T22:41:17.414Z,41.72
2022-11-24T22:43:45.560Z,36.85
2022-11-24T22:46:14.843Z,35.00
2022-11-24T22:48:42.440Z,33.50
2022-11-24T22:51:17.754Z,41.30
2022-11-24T22:53:52.420Z,36.05
2022-11-24T22:56:19.931Z,33.25
2022-11-24T22:58:47.411Z,32.40
2022-11-24T23:01:20.506Z,37.45
2022-11-24T23:03:48.965Z,38.63
2022-11-24T23:06:28.181Z,32.03
2022-11-24T23:08:55.519Z,36.50
2022-11-24T23:11:30.743Z,36.30
2022-11-24T23:14:03.008Z,32.58
2022-11-24T23:16:30.767Z,39.38
2022-11-24T23:18:59.216Z,36.13
2022-11-24T23:21:31.305Z,34.13
2022-11-24T23:24:03.310Z,35.85
2022-11-24T23:26:34.474Z,30.77
2022-11-24T23:29:02.276Z,37.60
2022-11-24T23:31:29.486Z,36.55
2022-11-24T23:33:58.421Z,40.58
2022-11-24T23:36:25.424Z,34.50
2022-11-24T23:38:52.111Z,37.20
2022-11-24T23:41:22.925Z,37.78
2022-11-24T23:43:50.788Z,37.08
2022-11-24T23:46:20.613Z,32.70
2022-11-24T23:48:49.602Z,33.35
2022-11-24T23:51:18.888Z,34.13
2022-11-24T23:53:46.081Z,37.45
2022-11-24T23:56:16.602Z,34.97
2022-11-24T23:58:43.732Z,30.95
